sensor_id;sensor_type;location;lat;lon;timestamp;P1;durP1;ratioP1;P2;durP2;ratioP2
75820;SDS011;64454;51.984;9.838;2023-02-23T00:01:32;11.95;;;8.60;;
75820;SDS011;64454;51.984;9.838;2023-02-23T00:03:59;12.70;;;8.32;;
75820;SDS011;64454;51.984;9.838;2023-02-23T00:06:26;10.65;;;8.13;;
75820;SDS011;64454;51.984;9.838;2023-02-23T00:08:55;11.95;;;8.82;;
75820;SDS011;64454;51.984;9.838;2023-02-23T00:11:26;11.90;;;8.40;;
75820;SDS011;64454;51.984;9.838;2023-02-23T00:13:53;13.52;;;8.80;;
75820;SDS011;64454;51.984;9.838;2023-02-23T00:16:22;12.13;;;8.10;;
75820;SDS011;64454;51.984;9.838;2023-02-23T00:18:51;12.75;;;8.40;;
75820;SDS011;64454;51.984;9.838;2023-02-23T00:21:21;11.00;;;9.00;;
75820;SDS011;64454;51.984;9.838;2023-02-23T00:23:50;12.23;;;8.10;;
75820;SDS011;64454;51.984;9.838;2023-02-23T00:26:19;13.40;;;8.77;;
75820;SDS011;64454;51.984;9.838;2023-02-23T00:28:49;10.75;;;8.13;;
75820;SDS011;64454;51.984;9.838;2023-02-23T00:31:18;9.63;;;7.65;;
75820;SDS011;64454;51.984;9.838;2023-02-23T00:33:49;10.75;;;8.10;;
75820;SDS011;64454;51.984;9.838;2023-02-23T00:36:18;10.13;;;7.07;;
75820;SDS011;64454;51.984;9.838;2023-02-23T00:38:51;12.77;;;8.40;;
75820;SDS011;64454;51.984;9.838;2023-02-23T00:41:19;11.93;;;8.30;;
75820;SDS011;64454;51.984;9.838;2023-02-23T00:43:49;10.75;;;7.97;;
75820;SDS011;64454;51.984;9.838;2023-02-23T00:46:19;10.30;;;8.00;;
75820;SDS011;64454;51.984;9.838;2023-02-23T00:48:51;13.23;;;9.23;;
75820;SDS011;64454;51.984;9.838;2023-02-23T00:51:19;13.50;;;8.13;;
75820;SDS011;64454;51.984;9.838;2023-02-23T00:53:46;13.18;;;8.38;;
75820;SDS011;64454;51.984;9.838;2023-02-23T00:56:14;9.93;;;7.60;;
75820;SDS011;64454;51.984;9.838;2023-02-23T00:58:41;11.93;;;8.10;;
75820;SDS011;64454;51.984;9.838;2023-02-23T01:01:10;10.03;;;7.70;;
75820;SDS011;64454;51.984;9.838;2023-02-23T01:03:39;9.00;;;7.15;;
75820;SDS011;64454;51.984;9.838;2023-02-23T01:06:08;11.60;;;7.88;;
75820;SDS011;64454;51.984;9.838;2023-02-23T01:08:39;11.40;;;8.77;;
75820;SDS011;64454;51.984;9.838;2023-02-23T01:11:09;9.82;;;7.50;;
75820;SDS011;64454;51.984;9.838;2023-02-23T01:13:38;9.68;;;7.68;;
75820;SDS011;64454;51.984;9.838;2023-02-23T01:16:07;11.55;;;7.82;;
75820;SDS011;64454;51.984;9.838;2023-02-23T01:18:39;13.35;;;8.48;;
75820;SDS011;64454;51.984;9.838;2023-02-23T01:21:12;13.00;;;8.50;;
75820;SDS011;64454;51.984;9.838;2023-02-23T01:23:41;11.80;;;7.57;;
75820;SDS011;64454;51.984;9.838;2023-02-23T01:26:13;11.73;;;7.90;;
75820;SDS011;64454;51.984;9.838;2023-02-23T01:28:43;10.20;;;7.55;;
75820;SDS011;64454;51.984;9.838;2023-02-23T01:31:15;10.38;;;7.60;;
75820;SDS011;64454;51.984;9.838;2023-02-23T01:33:42;12.40;;;8.07;;
75820;SDS011;64454;51.984;9.838;2023-02-23T01:36:10;12.13;;;8.38;;
75820;SDS011;64454;51.984;9.838;2023-02-23T01:38:37;15.03;;;9.10;;
75820;SDS011;64454;51.984;9.838;2023-02-23T01:41:04;12.57;;;8.63;;
75820;SDS011;64454;51.984;9.838;2023-02-23T01:43:33;11.48;;;8.52;;
75820;SDS011;64454;51.984;9.838;2023-02-23T01:46:01;11.50;;;8.70;;
75820;SDS011;64454;51.984;9.838;2023-02-23T01:48:30;12.00;;;9.00;;
75820;SDS011;64454;51.984;9.838;2023-02-23T01:51:03;14.10;;;9.45;;
75820;SDS011;64454;51.984;9.838;2023-02-23T01:53:37;14.30;;;9.52;;
75820;SDS011;64454;51.984;9.838;2023-02-23T01:56:08;13.73;;;9.35;;
75820;SDS011;64454;51.984;9.838;2023-02-23T01:58:42;12.03;;;8.90;;
75820;SDS011;64454;51.984;9.838;2023-02-23T02:01:15;12.40;;;9.10;;
75820;SDS011;64454;51.984;9.838;2023-02-23T02:03:46;13.37;;;9.37;;
75820;SDS011;64454;51.984;9.838;2023-02-23T02:06:20;12.93;;;8.60;;
75820;SDS011;64454;51.984;9.838;2023-02-23T02:08:53;11.27;;;8.75;;
75820;SDS011;64454;51.984;9.838;2023-02-23T02:11:24;12.10;;;7.85;;
75820;SDS011;64454;51.984;9.838;2023-02-23T02:13:55;11.85;;;8.68;;
75820;SDS011;64454;51.984;9.838;2023-02-23T02:16:33;10.32;;;8.55;;
75820;SDS011;64454;51.984;9.838;2023-02-23T02:19:38;12.33;;;8.87;;
75820;SDS011;64454;51.984;9.838;2023-02-23T02:23:01;12.20;;;9.23;;
75820;SDS011;64454;51.984;9.838;2023-02-23T02:26:11;11.75;;;8.20;;
75820;SDS011;64454;51.984;9.838;2023-02-23T02:28:56;13.32;;;8.90;;
75820;SDS011;64454;51.984;9.838;2023-02-23T02:32:10;10.85;;;8.80;;
75820;SDS011;64454;51.984;9.838;2023-02-23T02:35:41;13.48;;;9.50;;
75820;SDS011;64454;51.984;9.838;2023-02-23T02:38:30;13.40;;;9.10;;
75820;SDS011;64454;51.984;9.838;2023-02-23T02:41:16;13.73;;;9.45;;
75820;SDS011;64454;51.984;9.838;2023-02-23T02:44:01;13.00;;;9.00;;
75820;SDS011;64454;51.984;9.838;2023-02-23T02:46:39;12.67;;;9.70;;
75820;SDS011;64454;51.984;9.838;2023-02-23T02:49:14;11.70;;;9.10;;
75820;SDS011;64454;51.984;9.838;2023-02-23T02:51:52;11.82;;;8.75;;
75820;SDS011;64454;51.984;9.838;2023-02-23T02:54:28;11.77;;;8.87;;
75820;SDS011;64454;51.984;9.838;2023-02-23T02:57:00;12.00;;;8.95;;
75820;SDS011;64454;51.984;9.838;2023-02-23T02:59:29;11.52;;;8.80;;
75820;SDS011;64454;51.984;9.838;2023-02-23T03:02:15;13.48;;;10.35;;
75820;SDS011;64454;51.984;9.838;2023-02-23T03:05:06;13.40;;;10.80;;
75820;SDS011;64454;51.984;9.838;2023-02-23T03:07:58;14.23;;;10.80;;
75820;SDS011;64454;51.984;9.838;2023-02-23T03:10:59;14.60;;;10.70;;
75820;SDS011;64454;51.984;9.838;2023-02-23T03:13:51;16.52;;;11.20;;
75820;SDS011;64454;51.984;9.838;2023-02-23T03:16:55;16.40;;;12.18;;
75820;SDS011;64454;51.984;9.838;2023-02-23T03:19:53;16.83;;;12.43;;
75820;SDS011;64454;51.984;9.838;2023-02-23T03:22:46;17.67;;;12.27;;
75820;SDS011;64454;51.984;9.838;2023-02-23T03:25:44;15.73;;;11.73;;
75820;SDS011;64454;51.984;9.838;2023-02-23T03:28:40;16.02;;;12.00;;
75820;SDS011;64454;51.984;9.838;2023-02-23T03:31:39;14.23;;;10.75;;
75820;SDS011;64454;51.984;9.838;2023-02-23T03:34:34;16.40;;;12.17;;
75820;SDS011;64454;51.984;9.838;2023-02-23T03:37:26;16.25;;;11.80;;
75820;SDS011;64454;51.984;9.838;2023-02-23T03:40:19;19.85;;;14.77;;
75820;SDS011;64454;51.984;9.838;2023-02-23T03:43:08;32.20;;;20.67;;
75820;SDS011;64454;51.984;9.838;2023-02-23T03:46:00;21.00;;;14.02;;
75820;SDS011;64454;51.984;9.838;2023-02-23T03:48:49;27.45;;;18.38;;
75820;SDS011;64454;51.984;9.838;2023-02-23T03:51:39;27.42;;;19.25;;
75820;SDS011;64454;51.984;9.838;2023-02-23T03:54:30;28.42;;;18.70;;
75820;SDS011;64454;51.984;9.838;2023-02-23T03:57:20;28.83;;;17.77;;
75820;SDS011;64454;51.984;9.838;2023-02-23T04:00:10;31.85;;;21.48;;
75820;SDS011;64454;51.984;9.838;2023-02-23T04:03:02;35.60;;;21.92;;
75820;SDS011;64454;51.984;9.838;2023-02-23T04:05:51;35.20;;;22.00;;
75820;SDS011;64454;51.984;9.838;2023-02-23T04:08:38;34.85;;;22.60;;
75820;SDS011;64454;51.984;9.838;2023-02-23T04:11:26;37.55;;;24.23;;
75820;SDS011;64454;51.984;9.838;2023-02-23T04:14:17;39.00;;;24.40;;
75820;SDS011;64454;51.984;9.838;2023-02-23T04:16:51;40.63;;;24.42;;
75820;SDS011;64454;51.984;9.838;2023-02-23T04:19:20;40.75;;;25.67;;
75820;SDS011;64454;51.984;9.838;2023-02-23T04:21:47;39.17;;;25.50;;
75820;SDS011;64454;51.984;9.838;2023-02-23T04:24:14;36.88;;;24.52;;
75820;SDS011;64454;51.984;9.838;2023-02-23T04:26:43;37.22;;;25.42;;
75820;SDS011;64454;51.984;9.838;2023-02-23T04:29:11;39.38;;;24.15;;
75820;SDS011;64454;51.984;9.838;2023-02-23T04:31:38;38.38;;;26.17;;
75820;SDS011;64454;51.984;9.838;2023-02-23T04:34:05;45.27;;;26.83;;
75820;SDS011;64454;51.984;9.838;2023-02-23T04:36:33;40.30;;;26.25;;
75820;SDS011;64454;51.984;9.838;2023-02-23T04:39:00;42.90;;;25.45;;
75820;SDS011;64454;51.984;9.838;2023-02-23T04:41:27;43.78;;;25.95;;
75820;SDS011;64454;51.984;9.838;2023-02-23T04:43:54;48.33;;;27.73;;
75820;SDS011;64454;51.984;9.838;2023-02-23T04:46:21;39.37;;;26.20;;
75820;SDS011;64454;51.984;9.838;2023-02-23T04:48:48;43.38;;;27.00;;
75820;SDS011;64454;51.984;9.838;2023-02-23T04:51:14;42.13;;;27.15;;
75820;SDS011;64454;51.984;9.838;2023-02-23T04:53:42;41.78;;;26.13;;
75820;SDS011;64454;51.984;9.838;2023-02-23T04:56:09;43.00;;;25.58;;
75820;SDS011;64454;51.984;9.838;2023-02-23T04:58:36;41.33;;;26.20;;
75820;SDS011;64454;51.984;9.838;2023-02-23T05:01:03;38.55;;;26.35;;
75820;SDS011;64454;51.984;9.838;2023-02-23T05:03:31;41.75;;;26.75;;
75820;SDS011;64454;51.984;9.838;2023-02-23T05:05:58;41.05;;;25.70;;
75820;SDS011;64454;51.984;9.838;2023-02-23T05:08:25;38.70;;;24.27;;
75820;SDS011;64454;51.984;9.838;2023-02-23T05:10:53;46.97;;;29.02;;
75820;SDS011;64454;51.984;9.838;2023-02-23T05:13:20;41.40;;;26.83;;
75820;SDS011;64454;51.984;9.838;2023-02-23T05:15:47;43.42;;;27.13;;
75820;SDS011;64454;51.984;9.838;2023-02-23T05:18:14;38.85;;;25.10;;
75820;SDS011;64454;51.984;9.838;2023-02-23T05:20:41;39.55;;;25.95;;
75820;SDS011;64454;51.984;9.838;2023-02-23T05:23:09;38.58;;;25.27;;
75820;SDS011;64454;51.984;9.838;2023-02-23T05:25:36;43.33;;;26.05;;
75820;SDS011;64454;51.984;9.838;2023-02-23T05:28:05;38.80;;;26.00;;
75820;SDS011;64454;51.984;9.838;2023-02-23T05:30:32;35.50;;;21.77;;
75820;SDS011;64454;51.984;9.838;2023-02-23T05:33:00;37.90;;;22.90;;
75820;SDS011;64454;51.984;9.838;2023-02-23T05:35:27;32.80;;;20.38;;
75820;SDS011;64454;51.984;9.838;2023-02-23T05:37:54;34.58;;;22.38;;
75820;SDS011;64454;51.984;9.838;2023-02-23T05:40:21;38.05;;;24.17;;
75820;SDS011;64454;51.984;9.838;2023-02-23T05:42:48;39.20;;;24.75;;
75820;SDS011;64454;51.984;9.838;2023-02-23T05:45:16;39.72;;;25.60;;
75820;SDS011;64454;51.984;9.838;2023-02-23T05:47:43;41.70;;;25.67;;
75820;SDS011;64454;51.984;9.838;2023-02-23T05:50:10;40.70;;;25.83;;
75820;SDS011;64454;51.984;9.838;2023-02-23T05:52:37;43.53;;;26.40;;
75820;SDS011;64454;51.984;9.838;2023-02-23T05:55:05;44.22;;;26.67;;
75820;SDS011;64454;51.984;9.838;2023-02-23T05:57:35;37.55;;;24.17;;
75820;SDS011;64454;51.984;9.838;2023-02-23T06:00:02;42.00;;;26.63;;
75820;SDS011;64454;51.984;9.838;2023-02-23T06:02:33;43.80;;;26.38;;
75820;SDS011;64454;51.984;9.838;2023-02-23T06:05:00;45.80;;;26.93;;
75820;SDS011;64454;51.984;9.838;2023-02-23T06:07:27;43.75;;;26.70;;
75820;SDS011;64454;51.984;9.838;2023-02-23T06:09:54;50.20;;;27.10;;
75820;SDS011;64454;51.984;9.838;2023-02-23T06:12:21;44.15;;;27.25;;
75820;SDS011;64454;51.984;9.838;2023-02-23T06:14:48;46.45;;;26.50;;
75820;SDS011;64454;51.984;9.838;2023-02-23T06:17:15;47.80;;;27.90;;
75820;SDS011;64454;51.984;9.838;2023-02-23T06:19:44;43.67;;;26.73;;
75820;SDS011;64454;51.984;9.838;2023-02-23T06:22:11;42.97;;;26.67;;
75820;SDS011;64454;51.984;9.838;2023-02-23T06:24:38;39.97;;;25.00;;
75820;SDS011;64454;51.984;9.838;2023-02-23T06:27:05;48.45;;;28.80;;
75820;SDS011;64454;51.984;9.838;2023-02-23T06:29:31;45.70;;;28.15;;
75820;SDS011;64454;51.984;9.838;2023-02-23T06:31:58;44.95;;;27.42;;
75820;SDS011;64454;51.984;9.838;2023-02-23T06:34:25;44.38;;;27.23;;
75820;SDS011;64454;51.984;9.838;2023-02-23T06:36:53;48.45;;;27.00;;
75820;SDS011;64454;51.984;9.838;2023-02-23T06:39:20;41.03;;;26.30;;
75820;SDS011;64454;51.984;9.838;2023-02-23T06:41:47;44.05;;;27.17;;
75820;SDS011;64454;51.984;9.838;2023-02-23T06:44:15;48.42;;;27.55;;
75820;SDS011;64454;51.984;9.838;2023-02-23T06:46:44;45.70;;;28.20;;
75820;SDS011;64454;51.984;9.838;2023-02-23T06:49:11;39.10;;;25.67;;
75820;SDS011;64454;51.984;9.838;2023-02-23T06:51:38;42.50;;;25.25;;
75820;SDS011;64454;51.984;9.838;2023-02-23T06:54:06;40.47;;;24.15;;
75820;SDS011;64454;51.984;9.838;2023-02-23T06:56:33;41.10;;;24.63;;
75820;SDS011;64454;51.984;9.838;2023-02-23T06:59:00;40.40;;;26.30;;
75820;SDS011;64454;51.984;9.838;2023-02-23T07:01:27;40.95;;;25.38;;
75820;SDS011;64454;51.984;9.838;2023-02-23T07:03:54;38.80;;;25.45;;
75820;SDS011;64454;51.984;9.838;2023-02-23T07:06:20;42.65;;;26.20;;
75820;SDS011;64454;51.984;9.838;2023-02-23T07:08:48;43.80;;;26.90;;
75820;SDS011;64454;51.984;9.838;2023-02-23T07:11:16;48.97;;;26.52;;
75820;SDS011;64454;51.984;9.838;2023-02-23T07:13:43;39.60;;;25.40;;
75820;SDS011;64454;51.984;9.838;2023-02-23T07:16:10;44.60;;;27.77;;
75820;SDS011;64454;51.984;9.838;2023-02-23T07:18:38;43.28;;;26.35;;
75820;SDS011;64454;51.984;9.838;2023-02-23T07:21:05;41.78;;;25.55;;
75820;SDS011;64454;51.984;9.838;2023-02-23T07:23:32;44.25;;;27.13;;
75820;SDS011;64454;51.984;9.838;2023-02-23T07:25:59;43.78;;;27.45;;
75820;SDS011;64454;51.984;9.838;2023-02-23T07:28:27;42.92;;;24.50;;
75820;SDS011;64454;51.984;9.838;2023-02-23T07:30:54;40.72;;;25.58;;
75820;SDS011;64454;51.984;9.838;2023-02-23T07:33:21;39.90;;;26.48;;
75820;SDS011;64454;51.984;9.838;2023-02-23T07:35:48;41.80;;;26.67;;
75820;SDS011;64454;51.984;9.838;2023-02-23T07:38:15;45.17;;;26.30;;
75820;SDS011;64454;51.984;9.838;2023-02-23T07:40:42;41.80;;;27.67;;
75820;SDS011;64454;51.984;9.838;2023-02-23T07:43:09;44.95;;;26.17;;
75820;SDS011;64454;51.984;9.838;2023-02-23T07:45:37;46.40;;;27.70;;
75820;SDS011;64454;51.984;9.838;2023-02-23T07:48:05;39.53;;;27.00;;
75820;SDS011;64454;51.984;9.838;2023-02-23T07:50:32;41.17;;;26.20;;
75820;SDS011;64454;51.984;9.838;2023-02-23T07:53:00;40.50;;;25.67;;
75820;SDS011;64454;51.984;9.838;2023-02-23T07:55:27;37.28;;;23.90;;
75820;SDS011;64454;51.984;9.838;2023-02-23T07:57:53;35.45;;;23.40;;
75820;SDS011;64454;51.984;9.838;2023-02-23T08:00:21;34.00;;;22.58;;
75820;SDS011;64454;51.984;9.838;2023-02-23T08:02:52;39.33;;;23.02;;
75820;SDS011;64454;51.984;9.838;2023-02-23T08:05:19;39.67;;;24.80;;
75820;SDS011;64454;51.984;9.838;2023-02-23T08:07:46;35.58;;;24.02;;
75820;SDS011;64454;51.984;9.838;2023-02-23T08:10:12;35.78;;;23.63;;
75820;SDS011;64454;51.984;9.838;2023-02-23T08:12:39;37.70;;;24.95;;
75820;SDS011;64454;51.984;9.838;2023-02-23T08:15:06;37.55;;;24.67;;
75820;SDS011;64454;51.984;9.838;2023-02-23T08:17:35;34.85;;;22.52;;
75820;SDS011;64454;51.984;9.838;2023-02-23T08:20:04;36.22;;;23.75;;
75820;SDS011;64454;51.984;9.838;2023-02-23T08:22:33;36.35;;;24.90;;
75820;SDS011;64454;51.984;9.838;2023-02-23T08:25:00;39.00;;;24.17;;
75820;SDS011;64454;51.984;9.838;2023-02-23T08:27:30;39.85;;;24.98;;
75820;SDS011;64454;51.984;9.838;2023-02-23T08:29:59;35.88;;;23.05;;
75820;SDS011;64454;51.984;9.838;2023-02-23T08:32:28;34.60;;;22.63;;
75820;SDS011;64454;51.984;9.838;2023-02-23T08:34:55;40.37;;;25.00;;
75820;SDS011;64454;51.984;9.838;2023-02-23T08:37:26;37.45;;;23.60;;
75820;SDS011;64454;51.984;9.838;2023-02-23T08:39:53;41.47;;;24.98;;
75820;SDS011;64454;51.984;9.838;2023-02-23T08:42:20;39.67;;;24.50;;
75820;SDS011;64454;51.984;9.838;2023-02-23T08:44:46;38.90;;;24.30;;
75820;SDS011;64454;51.984;9.838;2023-02-23T08:47:13;45.00;;;28.40;;
75820;SDS011;64454;51.984;9.838;2023-02-23T08:49:41;37.53;;;24.90;;
75820;SDS011;64454;51.984;9.838;2023-02-23T08:52:08;39.53;;;24.33;;
75820;SDS011;64454;51.984;9.838;2023-02-23T08:54:36;42.60;;;26.50;;
75820;SDS011;64454;51.984;9.838;2023-02-23T08:57:03;41.15;;;26.58;;
75820;SDS011;64454;51.984;9.838;2023-02-23T08:59:30;40.08;;;25.98;;
75820;SDS011;64454;51.984;9.838;2023-02-23T09:01:57;40.13;;;24.85;;
75820;SDS011;64454;51.984;9.838;2023-02-23T09:04:24;47.00;;;28.63;;
75820;SDS011;64454;51.984;9.838;2023-02-23T09:06:51;44.05;;;26.90;;
75820;SDS011;64454;51.984;9.838;2023-02-23T09:09:19;45.15;;;27.77;;
75820;SDS011;64454;51.984;9.838;2023-02-23T09:11:47;45.17;;;28.50;;
75820;SDS011;64454;51.984;9.838;2023-02-23T09:14:15;50.30;;;30.13;;
75820;SDS011;64454;51.984;9.838;2023-02-23T09:16:43;49.55;;;29.80;;
75820;SDS011;64454;51.984;9.838;2023-02-23T09:19:11;47.65;;;29.35;;
75820;SDS011;64454;51.984;9.838;2023-02-23T09:21:39;51.03;;;31.60;;
75820;SDS011;64454;51.984;9.838;2023-02-23T09:24:08;50.13;;;31.23;;
75820;SDS011;64454;51.984;9.838;2023-02-23T09:26:35;48.17;;;31.20;;
75820;SDS011;64454;51.984;9.838;2023-02-23T09:29:05;43.75;;;28.85;;
75820;SDS011;64454;51.984;9.838;2023-02-23T09:31:37;43.75;;;27.88;;
75820;SDS011;64454;51.984;9.838;2023-02-23T09:34:04;43.80;;;29.35;;
75820;SDS011;64454;51.984;9.838;2023-02-23T09:36:33;43.47;;;29.55;;
75820;SDS011;64454;51.984;9.838;2023-02-23T09:39:00;50.70;;;30.52;;
75820;SDS011;64454;51.984;9.838;2023-02-23T09:41:34;46.70;;;31.23;;
75820;SDS011;64454;51.984;9.838;2023-02-23T09:44:22;45.25;;;29.25;;
75820;SDS011;64454;51.984;9.838;2023-02-23T09:47:08;51.20;;;30.77;;
75820;SDS011;64454;51.984;9.838;2023-02-23T09:49:49;47.63;;;29.35;;
75820;SDS011;64454;51.984;9.838;2023-02-23T09:52:17;43.45;;;29.90;;
75820;SDS011;64454;51.984;9.838;2023-02-23T09:54:50;45.80;;;30.83;;
75820;SDS011;64454;51.984;9.838;2023-02-23T09:57:18;50.33;;;32.50;;
75820;SDS011;64454;51.984;9.838;2023-02-23T10:00:05;52.88;;;34.25;;
75820;SDS011;64454;51.984;9.838;2023-02-23T10:02:47;49.22;;;32.13;;
75820;SDS011;64454;51.984;9.838;2023-02-23T10:05:31;48.70;;;32.87;;
75820;SDS011;64454;51.984;9.838;2023-02-23T10:08:10;51.45;;;33.55;;
75820;SDS011;64454;51.984;9.838;2023-02-23T10:10:49;50.58;;;32.90;;
75820;SDS011;64454;51.984;9.838;2023-02-23T10:13:33;49.10;;;32.25;;
75820;SDS011;64454;51.984;9.838;2023-02-23T10:16:18;52.53;;;33.95;;
75820;SDS011;64454;51.984;9.838;2023-02-23T10:18:56;51.33;;;32.90;;
75820;SDS011;64454;51.984;9.838;2023-02-23T10:21:32;46.85;;;33.90;;
75820;SDS011;64454;51.984;9.838;2023-02-23T10:24:04;51.20;;;34.33;;
75820;SDS011;64454;51.984;9.838;2023-02-23T10:26:38;49.28;;;30.75;;
75820;SDS011;64454;51.984;9.838;2023-02-23T10:29:16;51.60;;;32.00;;
75820;SDS011;64454;51.984;9.838;2023-02-23T10:31:55;49.90;;;33.95;;
75820;SDS011;64454;51.984;9.838;2023-02-23T10:34:26;50.80;;;34.25;;
75820;SDS011;64454;51.984;9.838;2023-02-23T10:36:56;47.93;;;32.93;;
75820;SDS011;64454;51.984;9.838;2023-02-23T10:39:26;49.00;;;32.30;;
75820;SDS011;64454;51.984;9.838;2023-02-23T10:41:55;47.63;;;32.97;;
75820;SDS011;64454;51.984;9.838;2023-02-23T10:44:27;49.05;;;33.55;;
75820;SDS011;64454;51.984;9.838;2023-02-23T10:46:57;50.00;;;34.10;;
75820;SDS011;64454;51.984;9.838;2023-02-23T10:49:30;45.53;;;32.20;;
75820;SDS011;64454;51.984;9.838;2023-02-23T10:52:07;47.42;;;33.30;;
75820;SDS011;64454;51.984;9.838;2023-02-23T10:54:41;49.17;;;33.53;;
75820;SDS011;64454;51.984;9.838;2023-02-23T10:57:12;52.53;;;35.97;;
75820;SDS011;64454;51.984;9.838;2023-02-23T10:59:59;46.05;;;33.28;;
75820;SDS011;64454;51.984;9.838;2023-02-23T11:02:34;51.50;;;33.78;;
75820;SDS011;64454;51.984;9.838;2023-02-23T11:05:02;44.40;;;31.77;;
75820;SDS011;64454;51.984;9.838;2023-02-23T11:07:31;49.40;;;32.25;;
75820;SDS011;64454;51.984;9.838;2023-02-23T11:10:19;43.33;;;32.20;;
75820;SDS011;64454;51.984;9.838;2023-02-23T11:12:53;41.28;;;30.17;;
75820;SDS011;64454;51.984;9.838;2023-02-23T11:15:24;41.63;;;31.33;;
75820;SDS011;64454;51.984;9.838;2023-02-23T11:17:54;41.38;;;31.67;;
75820;SDS011;64454;51.984;9.838;2023-02-23T11:20:24;42.63;;;31.17;;
75820;SDS011;64454;51.984;9.838;2023-02-23T11:22:57;38.80;;;30.60;;
75820;SDS011;64454;51.984;9.838;2023-02-23T11:25:26;40.83;;;31.27;;
75820;SDS011;64454;51.984;9.838;2023-02-23T11:27:56;42.25;;;30.83;;
75820;SDS011;64454;51.984;9.838;2023-02-23T11:30:25;36.53;;;27.80;;
75820;SDS011;64454;51.984;9.838;2023-02-23T11:33:02;42.20;;;30.83;;
75820;SDS011;64454;51.984;9.838;2023-02-23T11:35:34;37.92;;;29.02;;
75820;SDS011;64454;51.984;9.838;2023-02-23T11:38:13;39.53;;;28.83;;
75820;SDS011;64454;51.984;9.838;2023-02-23T11:40:57;38.97;;;28.60;;
75820;SDS011;64454;51.984;9.838;2023-02-23T11:43:26;32.38;;;25.73;;
75820;SDS011;64454;51.984;9.838;2023-02-23T11:45:53;34.53;;;27.40;;
75820;SDS011;64454;51.984;9.838;2023-02-23T11:48:24;35.10;;;27.55;;
75820;SDS011;64454;51.984;9.838;2023-02-23T11:50:57;35.70;;;27.30;;
75820;SDS011;64454;51.984;9.838;2023-02-23T11:53:27;34.78;;;26.98;;
75820;SDS011;64454;51.984;9.838;2023-02-23T11:56:01;31.98;;;24.42;;
75820;SDS011;64454;51.984;9.838;2023-02-23T11:58:36;31.80;;;24.27;;
75820;SDS011;64454;51.984;9.838;2023-02-23T12:01:07;30.27;;;23.88;;
75820;SDS011;64454;51.984;9.838;2023-02-23T12:03:38;30.35;;;23.35;;
75820;SDS011;64454;51.984;9.838;2023-02-23T12:06:15;32.38;;;24.75;;
75820;SDS011;64454;51.984;9.838;2023-02-23T12:08:54;32.35;;;25.38;;
75820;SDS011;64454;51.984;9.838;2023-02-23T12:11:31;33.33;;;25.67;;
75820;SDS011;64454;51.984;9.838;2023-02-23T12:14:06;34.17;;;25.90;;
75820;SDS011;64454;51.984;9.838;2023-02-23T12:16:47;32.85;;;25.50;;
75820;SDS011;64454;51.984;9.838;2023-02-23T12:19:22;32.80;;;25.55;;
75820;SDS011;64454;51.984;9.838;2023-02-23T12:21:56;33.80;;;26.10;;
75820;SDS011;64454;51.984;9.838;2023-02-23T12:24:32;33.05;;;25.65;;
75820;SDS011;64454;51.984;9.838;2023-02-23T12:27:13;33.70;;;25.50;;
75820;SDS011;64454;51.984;9.838;2023-02-23T12:29:54;28.55;;;23.88;;
75820;SDS011;64454;51.984;9.838;2023-02-23T12:32:36;30.02;;;23.67;;
75820;SDS011;64454;51.984;9.838;2023-02-23T12:35:12;28.15;;;22.85;;
75820;SDS011;64454;51.984;9.838;2023-02-23T12:37:47;27.73;;;22.58;;
75820;SDS011;64454;51.984;9.838;2023-02-23T12:40:20;27.90;;;22.27;;
75820;SDS011;64454;51.984;9.838;2023-02-23T12:42:56;26.70;;;21.67;;
75820;SDS011;64454;51.984;9.838;2023-02-23T12:45:32;24.70;;;21.20;;
75820;SDS011;64454;51.984;9.838;2023-02-23T12:48:11;26.05;;;21.95;;
75820;SDS011;64454;51.984;9.838;2023-02-23T12:50:50;25.77;;;21.27;;
75820;SDS011;64454;51.984;9.838;2023-02-23T12:53:21;24.65;;;20.77;;
75820;SDS011;64454;51.984;9.838;2023-02-23T12:56:00;22.83;;;20.05;;
75820;SDS011;64454;51.984;9.838;2023-02-23T12:58:48;26.65;;;21.70;;
75820;SDS011;64454;51.984;9.838;2023-02-23T13:01:25;24.50;;;20.20;;
75820;SDS011;64454;51.984;9.838;2023-02-23T13:04:03;25.73;;;21.35;;
75820;SDS011;64454;51.984;9.838;2023-02-23T13:07:05;25.65;;;21.05;;
75820;SDS011;64454;51.984;9.838;2023-02-23T13:09:44;25.67;;;21.55;;
75820;SDS011;64454;51.984;9.838;2023-02-23T13:12:29;26.48;;;21.70;;
75820;SDS011;64454;51.984;9.838;2023-02-23T13:15:14;24.77;;;19.65;;
75820;SDS011;64454;51.984;9.838;2023-02-23T13:17:52;24.90;;;20.80;;
75820;SDS011;64454;51.984;9.838;2023-02-23T13:20:29;24.60;;;20.80;;
75820;SDS011;64454;51.984;9.838;2023-02-23T13:23:07;25.33;;;20.27;;
75820;SDS011;64454;51.984;9.838;2023-02-23T13:25:47;26.17;;;22.20;;
75820;SDS011;64454;51.984;9.838;2023-02-23T13:28:26;27.13;;;21.92;;
75820;SDS011;64454;51.984;9.838;2023-02-23T13:31:12;25.30;;;21.58;;
75820;SDS011;64454;51.984;9.838;2023-02-23T13:33:48;26.02;;;20.38;;
75820;SDS011;64454;51.984;9.838;2023-02-23T13:36:15;23.50;;;19.85;;
75820;SDS011;64454;51.984;9.838;2023-02-23T13:38:45;26.52;;;20.48;;
75820;SDS011;64454;51.984;9.838;2023-02-23T13:41:49;21.60;;;18.83;;
75820;SDS011;64454;51.984;9.838;2023-02-23T13:44:31;23.85;;;19.60;;
75820;SDS011;64454;51.984;9.838;2023-02-23T13:47:09;23.33;;;18.88;;
75820;SDS011;64454;51.984;9.838;2023-02-23T13:49:50;21.40;;;18.38;;
75820;SDS011;64454;51.984;9.838;2023-02-23T13:52:27;22.95;;;17.90;;
75820;SDS011;64454;51.984;9.838;2023-02-23T13:54:58;19.40;;;15.48;;
75820;SDS011;64454;51.984;9.838;2023-02-23T13:57:28;19.27;;;15.90;;
75820;SDS011;64454;51.984;9.838;2023-02-23T13:59:56;18.20;;;15.20;;
75820;SDS011;64454;51.984;9.838;2023-02-23T14:02:31;19.05;;;14.90;;
75820;SDS011;64454;51.984;9.838;2023-02-23T14:05:03;19.25;;;16.52;;
75820;SDS011;64454;51.984;9.838;2023-02-23T14:07:40;18.13;;;15.47;;
75820;SDS011;64454;51.984;9.838;2023-02-23T14:10:15;20.30;;;17.40;;
75820;SDS011;64454;51.984;9.838;2023-02-23T14:13:03;22.07;;;17.30;;
75820;SDS011;64454;51.984;9.838;2023-02-23T14:15:49;19.70;;;17.23;;
75820;SDS011;64454;51.984;9.838;2023-02-23T14:21:56;25.25;;;19.65;;
75820;SDS011;64454;51.984;9.838;2023-02-23T14:24:29;23.40;;;18.10;;
75820;SDS011;64454;51.984;9.838;2023-02-23T14:30:14;22.15;;;18.50;;
75820;SDS011;64454;51.984;9.838;2023-02-23T14:32:49;21.17;;;17.33;;
75820;SDS011;64454;51.984;9.838;2023-02-23T14:40:58;20.73;;;17.38;;
75820;SDS011;64454;51.984;9.838;2023-02-23T14:43:40;21.08;;;17.40;;
75820;SDS011;64454;51.984;9.838;2023-02-23T14:46:11;21.88;;;17.50;;
75820;SDS011;64454;51.984;9.838;2023-02-23T14:48:54;21.55;;;18.17;;
75820;SDS011;64454;51.984;9.838;2023-02-23T14:51:35;18.48;;;16.33;;
75820;SDS011;64454;51.984;9.838;2023-02-23T14:54:18;19.73;;;16.90;;
75820;SDS011;64454;51.984;9.838;2023-02-23T14:56:52;21.70;;;17.30;;
75820;SDS011;64454;51.984;9.838;2023-02-23T14:59:23;22.27;;;17.80;;
75820;SDS011;64454;51.984;9.838;2023-02-23T15:01:52;22.42;;;17.67;;
75820;SDS011;64454;51.984;9.838;2023-02-23T15:04:24;21.43;;;16.93;;
75820;SDS011;64454;51.984;9.838;2023-02-23T15:06:56;18.98;;;16.70;;
75820;SDS011;64454;51.984;9.838;2023-02-23T15:09:33;17.58;;;15.30;;
75820;SDS011;64454;51.984;9.838;2023-02-23T15:12:10;22.25;;;17.55;;
75820;SDS011;64454;51.984;9.838;2023-02-23T15:14:41;18.08;;;15.80;;